Terminal Aerodrome Forecast
Issued by NWS

Home | Current Version | Previous Version | Text Only | Print | Product List | Glossary On
Versions: 1 2 3 4 5 6 7 8 9 10 11 12 13 14
000
FTUS43 KILX 290500
TAFBMI
TAF
KBMI 290520Z 2906/3006 16010KT P6SM SKC
     FM291000 17015KT P6SM BKN200
     FM291500 18024G34KT P6SM VCSH BKN035
     FM292200 22015G25KT P6SM BKN050
     FM300400 30012KT P6SM SCT050=

USA.gov is the U.S. government's official web portal to all federal, state and local government web resources and services.